Time;durP1;ratioP1;P1;durP2;ratioP2;P2;SDS_P1;SDS_P2;PMS_P1;PMS_P2;Temp;Humidity;BMP_temperature;BMP_pressure;BME280_temperature;BME280_humidity;BME280_pressure;Samples;Min_cycle;Max_cycle;Signal;HPM_P1;HPM_P2
2023/09/03 00:00:48;;;;;;;2.78;2.58;;;19.60;69.30;;;;;;5054748;28;20183;-68
2023/09/03 00:03:14;;;;;;;2.78;2.58;;;19.70;69.30;;;;;;5054398;28;20494;-69
2023/09/03 00:05:48;;;;;;;2.85;2.65;;;19.60;69.30;;;;;;5053916;28;20258;-69
2023/09/03 00:08:13;;;;;;;2.50;2.30;;;19.70;69.30;;;;;;5054312;28;20171;-69
2023/09/03 00:10:39;;;;;;;2.67;2.47;;;19.70;69.30;;;;;;5054102;28;20670;-68
2023/09/03 00:13:04;;;;;;;2.47;2.28;;;19.60;69.30;;;;;;5053529;28;20194;-67
2023/09/03 00:15:30;;;;;;;2.53;2.33;;;19.60;69.20;;;;;;5054290;28;20171;-67
2023/09/03 00:17:55;;;;;;;2.72;2.53;;;19.60;70.10;;;;;;5053615;28;20312;-67
2023/09/03 00:20:21;;;;;;;3.55;2.95;;;19.60;69.20;;;;;;5054023;28;20538;-67
2023/09/03 00:22:46;;;;;;;2.80;2.60;;;19.60;69.20;;;;;;5054251;28;20549;-67
2023/09/03 00:25:12;;;;;;;2.78;2.58;;;19.60;69.20;;;;;;5053065;28;20236;-67
2023/09/03 00:27:37;;;;;;;2.47;2.30;;;19.60;69.10;;;;;;5054034;28;20172;-67
2023/09/03 00:30:03;;;;;;;2.60;2.40;;;19.60;69.10;;;;;;5053917;28;20229;-68
2023/09/03 00:32:29;;;;;;;3.08;2.88;;;19.60;69.20;;;;;;5053269;28;20654;-69
2023/09/03 00:34:54;;;;;;;2.85;2.55;;;19.60;69.10;;;;;;5054002;28;20537;-69
2023/09/03 00:37:20;;;;;;;2.80;2.60;;;19.60;69.10;;;;;;5053734;28;20175;-69
2023/09/03 00:39:45;;;;;;;2.75;2.55;;;19.60;69.10;;;;;;5053047;28;20175;-68
2023/09/03 00:42:11;;;;;;;3.38;2.40;;;19.60;70.00;;;;;;5052656;28;20181;-68
2023/09/03 00:44:36;;;;;;;2.60;2.50;;;19.60;69.00;;;;;;5053873;28;20175;-67
2023/09/03 00:47:02;;;;;;;2.70;2.50;;;19.60;69.10;;;;;;5052908;28;20179;-68
2023/09/03 00:49:27;;;;;;;2.70;2.50;;;19.60;69.00;;;;;;5053584;28;20182;-68
2023/09/03 00:51:53;;;;;;;2.70;2.50;;;19.60;69.10;;;;;;5053611;28;20181;-67
2023/09/03 00:54:22;;;;;;;3.08;2.80;;;19.60;69.10;;;;;;5052612;28;20171;-67
2023/09/03 00:56:49;;;;;;;2.65;2.45;;;19.60;69.10;;;;;;5052158;28;20179;-67
2023/09/03 00:59:15;;;;;;;2.70;2.50;;;19.60;69.00;;;;;;5051718;28;20227;-68
2023/09/03 01:01:42;;;;;;;2.55;2.35;;;19.50;69.00;;;;;;5052631;28;20668;-68
2023/09/03 01:04:07;;;;;;;2.83;2.63;;;19.50;69.00;;;;;;5053017;28;20183;-69
2023/09/03 01:06:33;;;;;;;2.80;2.60;;;19.60;69.00;;;;;;5053536;28;20178;-68
2023/09/03 01:08:58;;;;;;;2.83;2.58;;;19.60;69.10;;;;;;5052609;28;20278;-68
2023/09/03 01:11:30;;;;;;;2.25;2.05;;;19.60;69.00;;;;;;5053094;28;20209;-67
2023/09/03 01:14:15;;;;;;;2.30;2.20;;;19.60;69.00;;;;;;5052215;28;20178;-67
2023/09/03 01:16:51;;;;;;;3.22;2.53;;;19.60;69.00;;;;;;5053329;28;20653;-66
2023/09/03 01:19:48;;;;;;;2.55;2.35;;;19.60;69.10;;;;;;5051824;28;20175;-68
2023/09/03 01:22:26;;;;;;;2.85;2.65;;;19.60;69.00;;;;;;5051257;28;20237;-68
2023/09/03 01:25:15;;;;;;;2.67;2.47;;;19.50;69.00;;;;;;5052063;28;20183;-68
2023/09/03 01:27:55;;;;;;;2.25;2.05;;;19.50;68.90;;;;;;5049651;28;20647;-66
2023/09/03 01:30:20;;;;;;;2.65;2.45;;;19.50;69.00;;;;;;5050931;28;20206;-67
2023/09/03 01:32:46;;;;;;;2.40;2.25;;;19.60;69.00;;;;;;5051810;28;20175;-68
2023/09/03 01:35:12;;;;;;;2.97;2.53;;;19.60;69.00;;;;;;5052091;28;20183;-68
2023/09/03 01:37:37;;;;;;;2.08;1.98;;;19.60;69.00;;;;;;5051748;28;20171;-68
2023/09/03 01:40:03;;;;;;;3.05;2.67;;;19.50;69.00;;;;;;5051491;28;20634;-68
2023/09/03 01:42:29;;;;;;;2.65;2.45;;;19.60;69.00;;;;;;5052035;28;20259;-68
2023/09/03 01:44:54;;;;;;;2.28;2.15;;;19.60;69.00;;;;;;5052741;28;20264;-68
2023/09/03 01:47:33;;;;;;;2.55;2.35;;;19.50;69.00;;;;;;5052647;28;20171;-68
2023/09/03 01:50:11;;;;;;;2.60;2.40;;;19.50;69.00;;;;;;5050702;28;20210;-67
2023/09/03 01:52:40;;;;;;;2.60;2.40;;;19.50;69.00;;;;;;5056198;28;20202;-67
2023/09/03 01:55:08;;;;;;;2.20;2.10;;;19.50;69.00;;;;;;5057846;28;20201;-67
2023/09/03 01:57:34;;;;;;;3.03;2.28;;;19.50;69.00;;;;;;5057602;28;20255;-67
2023/09/03 02:00:05;;;;;;;2.63;2.42;;;19.50;69.00;;;;;;5057923;28;20226;-68
2023/09/03 02:02:30;;;;;;;2.58;2.38;;;19.50;69.00;;;;;;5058269;28;20175;-69
2023/09/03 02:04:56;;;;;;;2.58;2.38;;;19.50;69.00;;;;;;5057422;28;20217;-69
2023/09/03 02:07:22;;;;;;;2.47;2.28;;;19.50;69.00;;;;;;5057865;28;20261;-68
2023/09/03 02:09:47;;;;;;;2.67;2.47;;;19.50;69.00;;;;;;5059047;28;20210;-67
2023/09/03 02:12:13;;;;;;;2.53;2.33;;;19.50;69.10;;;;;;5058333;28;20653;-67
2023/09/03 02:14:38;;;;;;;2.60;2.40;;;19.50;69.00;;;;;;5059328;28;20633;-66
2023/09/03 02:17:04;;;;;;;2.78;2.58;;;19.50;69.10;;;;;;5058884;28;20170;-67
2023/09/03 02:19:29;;;;;;;2.60;2.40;;;19.50;69.10;;;;;;5058208;28;20187;-67
2023/09/03 02:21:55;;;;;;;2.80;2.50;;;19.50;69.00;;;;;;5059212;28;20175;-67
2023/09/03 02:24:20;;;;;;;2.72;2.53;;;19.50;69.10;;;;;;5058038;28;20179;-67
2023/09/03 02:26:46;;;;;;;2.92;2.65;;;19.50;69.10;;;;;;5059303;28;20209;-66
2023/09/03 02:29:12;;;;;;;2.70;2.50;;;19.50;69.00;;;;;;5058721;28;20532;-67
2023/09/03 02:31:38;;;;;;;2.85;2.50;;;19.50;69.10;;;;;;5058398;28;20215;-67
2023/09/03 02:34:04;;;;;;;2.60;2.40;;;19.40;69.00;;;;;;5058823;28;20171;-68
2023/09/03 02:36:30;;;;;;;2.47;2.28;;;19.50;70.00;;;;;;5058874;28;20171;-69
2023/09/03 02:39:02;;;;;;;2.78;2.58;;;19.50;69.10;;;;;;5058184;28;20183;-69
2023/09/03 02:41:31;;;;;;;2.13;2.03;;;19.50;69.10;;;;;;5059077;28;20179;-68
2023/09/03 02:43:57;;;;;;;2.42;2.22;;;19.50;69.20;;;;;;5058894;28;20263;-69
2023/09/03 02:46:23;;;;;;;2.45;2.25;;;19.50;69.20;;;;;;5058157;28;20646;-69
2023/09/03 02:48:49;;;;;;;2.35;2.22;;;19.50;69.10;;;;;;5059040;28;20175;-67
2023/09/03 02:51:15;;;;;;;2.30;2.10;;;19.50;70.00;;;;;;5058430;28;20740;-67
2023/09/03 02:53:42;;;;;;;2.22;2.13;;;19.40;69.10;;;;;;5058151;28;20253;-66
2023/09/03 02:56:08;;;;;;;2.60;2.40;;;19.50;69.10;;;;;;5058628;28;20186;-68
2023/09/03 02:58:34;;;;;;;2.60;2.05;;;19.50;69.10;;;;;;5058769;28;20685;-68
2023/09/03 03:01:06;;;;;;;2.38;2.17;;;19.50;69.20;;;;;;5057976;28;20171;-68
2023/09/03 03:03:32;;;;;;;2.50;2.30;;;19.50;69.10;;;;;;5056909;28;20175;-68
2023/09/03 03:05:58;;;;;;;2.40;2.22;;;19.50;69.20;;;;;;5055199;28;20198;-69
2023/09/03 03:08:24;;;;;;;2.65;2.45;;;19.50;69.20;;;;;;5054897;28;20631;-68
2023/09/03 03:10:50;;;;;;;2.47;2.28;;;19.50;69.20;;;;;;5055364;28;20217;-67
2023/09/03 03:13:16;;;;;;;2.10;2.00;;;19.40;69.20;;;;;;5055347;28;20225;-67
2023/09/03 03:15:41;;;;;;;2.55;2.35;;;19.40;69.30;;;;;;5054820;28;20264;-66
2023/09/03 03:18:07;;;;;;;2.55;2.35;;;19.40;69.20;;;;;;5055122;28;20190;-67
2023/09/03 03:20:32;;;;;;;2.13;1.90;;;19.50;69.20;;;;;;5055175;28;20179;-67
2023/09/03 03:22:58;;;;;;;2.42;2.22;;;19.40;69.20;;;;;;5054760;28;20172;-68
2023/09/03 03:25:23;;;;;;;2.30;2.20;;;19.50;69.20;;;;;;5055309;28;20270;-67
2023/09/03 03:27:49;;;;;;;2.17;1.98;;;19.40;70.10;;;;;;5054591;28;20261;-67
2023/09/03 03:30:14;;;;;;;2.50;2.30;;;19.40;69.20;;;;;;5054840;28;20230;-67
2023/09/03 03:32:40;;;;;;;2.40;2.20;;;19.40;69.10;;;;;;5054994;28;20175;-67
2023/09/03 03:35:06;;;;;;;2.28;2.17;;;19.40;69.10;;;;;;5054088;28;20190;-68
2023/09/03 03:37:31;;;;;;;2.15;1.98;;;19.40;69.20;;;;;;5054800;28;20182;-68
2023/09/03 03:39:57;;;;;;;2.60;2.40;;;19.40;69.10;;;;;;5054804;28;20214;-68
2023/09/03 03:42:22;;;;;;;3.40;1.98;;;19.40;69.10;;;;;;5054243;28;20183;-68
2023/09/03 03:44:48;;;;;;;2.33;2.13;;;19.40;69.20;;;;;;5054949;28;20258;-67
2023/09/03 03:47:13;;;;;;;2.50;2.30;;;19.40;70.10;;;;;;5054607;28;20278;-68
2023/09/03 03:49:39;;;;;;;2.17;2.03;;;19.40;69.20;;;;;;5053915;28;20168;-67
2023/09/03 03:52:05;;;;;;;2.00;1.90;;;19.40;69.20;;;;;;5054759;28;20179;-67
2023/09/03 03:54:30;;;;;;;2.28;2.08;;;19.40;69.20;;;;;;5054850;28;20175;-66
2023/09/03 03:56:56;;;;;;;2.30;2.20;;;19.40;69.20;;;;;;5053827;28;20668;-68
2023/09/03 03:59:22;;;;;;;2.20;2.05;;;19.40;69.20;;;;;;5054186;28;20219;-68
2023/09/03 04:01:47;;;;;;;2.35;2.15;;;19.40;69.10;;;;;;5054525;28;20510;-68
2023/09/03 04:04:13;;;;;;;1.95;1.85;;;19.40;69.10;;;;;;5053449;28;20175;-68
2023/09/03 04:06:38;;;;;;;2.30;2.10;;;19.40;69.10;;;;;;5054361;28;20174;-68
2023/09/03 04:09:04;;;;;;;2.53;2.10;;;19.40;69.10;;;;;;5054435;28;20179;-68
2023/09/03 04:11:29;;;;;;;2.00;1.90;;;19.40;69.00;;;;;;5053579;28;20585;-66
2023/09/03 04:13:55;;;;;;;2.05;1.85;;;19.40;69.80;;;;;;5054408;28;20250;-67
2023/09/03 04:16:22;;;;;;;2.67;2.47;;;19.40;69.10;;;;;;5052718;28;20173;-67
2023/09/03 04:18:49;;;;;;;2.00;1.90;;;19.40;69.00;;;;;;5053421;28;20268;-66
2023/09/03 04:21:15;;;;;;;2.03;1.92;;;19.40;69.10;;;;;;5053998;28;20185;-67
2023/09/03 04:23:40;;;;;;;2.00;1.90;;;19.40;69.10;;;;;;5054283;28;20171;-66
2023/09/03 04:26:08;;;;;;;2.28;1.92;;;19.40;69.10;;;;;;5053081;28;20713;-68
2023/09/03 04:28:34;;;;;;;1.95;1.80;;;19.40;69.10;;;;;;5054024;28;20197;-67
2023/09/03 04:31:00;;;;;;;2.53;2.25;;;19.30;69.00;;;;;;5052988;28;20686;-67
2023/09/03 04:33:26;;;;;;;2.20;2.00;;;19.40;69.00;;;;;;5053792;28;20718;-68
2023/09/03 04:35:55;;;;;;;2.30;2.13;;;19.40;69.10;;;;;;5054143;28;20274;-68
2023/09/03 04:38:21;;;;;;;2.17;1.98;;;19.30;69.00;;;;;;5053037;28;20545;-68
2023/09/03 04:40:46;;;;;;;1.90;1.80;;;19.40;69.00;;;;;;5053889;28;20645;-68
2023/09/03 04:43:12;;;;;;;2.00;1.90;;;19.30;69.70;;;;;;5053694;28;20567;-68
2023/09/03 04:45:37;;;;;;;2.20;2.00;;;19.40;69.00;;;;;;5053180;28;20392;-68
2023/09/03 04:48:03;;;;;;;2.10;2.00;;;19.30;68.90;;;;;;5053464;28;20633;-68
2023/09/03 04:50:29;;;;;;;2.30;2.10;;;19.40;69.00;;;;;;5053663;28;20215;-68
2023/09/03 04:52:55;;;;;;;2.55;2.35;;;19.30;68.80;;;;;;5053206;28;20175;-67
2023/09/03 04:55:20;;;;;;;2.10;2.00;;;19.30;68.90;;;;;;5053348;28;20179;-68
2023/09/03 04:57:46;;;;;;;2.25;2.08;;;19.30;68.90;;;;;;5053590;28;20168;-67
2023/09/03 05:00:12;;;;;;;2.20;2.00;;;19.40;68.90;;;;;;5052188;28;20277;-68
2023/09/03 05:02:37;;;;;;;2.03;1.83;;;19.30;68.90;;;;;;5053374;28;20178;-68
2023/09/03 05:05:03;;;;;;;2.17;1.98;;;19.30;68.80;;;;;;5053290;28;20174;-68
2023/09/03 05:07:28;;;;;;;2.03;1.90;;;19.30;68.90;;;;;;5052413;28;20178;-69
2023/09/03 05:09:54;;;;;;;2.25;1.80;;;19.40;68.90;;;;;;5053333;28;20203;-68
2023/09/03 05:12:20;;;;;;;2.10;2.00;;;19.30;68.90;;;;;;5052933;28;20179;-68
2023/09/03 05:14:46;;;;;;;2.80;2.05;;;19.30;69.20;;;;;;5052627;28;20221;-66
2023/09/03 05:17:12;;;;;;;2.15;2.03;;;19.40;68.90;;;;;;5052811;28;20201;-67
2023/09/03 05:19:38;;;;;;;2.15;2.05;;;19.30;68.80;;;;;;5053299;28;20210;-67
2023/09/03 05:22:04;;;;;;;2.10;1.90;;;19.30;68.80;;;;;;5052174;28;20175;-67
2023/09/03 05:24:29;;;;;;;2.20;2.00;;;19.30;68.70;;;;;;5053084;28;20178;-67
2023/09/03 05:26:55;;;;;;;2.55;1.92;;;19.30;68.70;;;;;;5052557;28;20182;-68
2023/09/03 05:29:21;;;;;;;2.45;1.83;;;19.30;68.70;;;;;;5051897;28;20179;-68
2023/09/03 05:31:46;;;;;;;1.65;1.55;;;19.40;68.70;;;;;;5052848;28;20242;-67
2023/09/03 05:34:12;;;;;;;2.33;2.20;;;19.30;68.70;;;;;;5052272;28;20213;-68
2023/09/03 05:36:38;;;;;;;2.08;1.98;;;19.30;68.70;;;;;;5052777;28;20187;-68
2023/09/03 05:39:04;;;;;;;2.17;1.73;;;19.30;68.60;;;;;;5052799;28;20178;-69
2023/09/03 05:41:29;;;;;;;1.92;1.83;;;19.40;68.70;;;;;;5052149;28;20175;-67
2023/09/03 05:43:56;;;;;;;2.35;1.95;;;19.30;68.70;;;;;;5052734;28;20561;-68
2023/09/03 05:46:21;;;;;;;3.28;2.15;;;19.30;68.60;;;;;;5052398;28;20179;-69
2023/09/03 05:48:50;;;;;;;1.95;1.80;;;19.30;69.40;;;;;;5051981;28;20171;-67
2023/09/03 05:51:16;;;;;;;2.03;1.83;;;19.30;68.60;;;;;;5052310;28;20210;-68
2023/09/03 05:53:42;;;;;;;1.90;1.80;;;19.30;68.60;;;;;;5052658;28;20178;-67
2023/09/03 05:56:09;;;;;;;2.05;1.90;;;19.40;68.70;;;;;;5051553;28;20186;-66
2023/09/03 05:58:34;;;;;;;2.42;1.70;;;19.40;68.70;;;;;;5052265;28;20771;-67
2023/09/03 06:01:07;;;;;;;2.33;2.08;;;19.40;68.70;;;;;;5052315;28;20179;-68
2023/09/03 06:03:33;;;;;;;2.10;2.00;;;19.40;69.50;;;;;;5051932;28;20575;-68
2023/09/03 06:06:18;;;;;;;1.70;1.60;;;19.40;68.70;;;;;;5052326;28;20642;-68
2023/09/03 06:08:44;;;;;;;1.70;1.58;;;19.40;68.70;;;;;;5052456;28;20727;-67
2023/09/03 06:11:10;;;;;;;1.77;1.67;;;19.40;68.70;;;;;;5051508;28;20207;-68
2023/09/03 06:13:35;;;;;;;1.60;1.50;;;19.40;68.70;;;;;;5052645;28;20653;-67
2023/09/03 06:16:01;;;;;;;2.05;1.67;;;19.40;68.70;;;;;;5052486;28;20175;-67
2023/09/03 06:18:26;;;;;;;1.75;1.65;;;19.40;68.80;;;;;;5051864;28;20179;-68
2023/09/03 06:20:52;;;;;;;1.77;1.50;;;19.30;68.70;;;;;;5052503;28;20175;-68
2023/09/03 06:23:18;;;;;;;1.75;1.65;;;19.40;68.80;;;;;;5052264;28;20179;-68
2023/09/03 06:25:47;;;;;;;1.70;1.60;;;19.40;68.80;;;;;;5051671;28;20254;-67
2023/09/03 06:28:13;;;;;;;1.80;1.70;;;19.40;68.80;;;;;;5052048;28;20191;-68
2023/09/03 06:30:39;;;;;;;1.67;1.58;;;19.40;68.80;;;;;;5051471;28;20245;-67
2023/09/03 06:33:04;;;;;;;1.85;1.75;;;19.40;68.80;;;;;;5052334;28;20178;-69
2023/09/03 06:35:30;;;;;;;1.80;1.70;;;19.50;68.80;;;;;;5052206;28;20652;-69
2023/09/03 06:37:56;;;;;;;1.50;1.40;;;19.40;68.80;;;;;;5051651;28;20259;-69
2023/09/03 06:40:25;;;;;;;1.80;1.70;;;19.50;68.90;;;;;;5054896;28;20179;-69
2023/09/03 06:42:53;;;;;;;2.35;1.90;;;19.50;68.80;;;;;;5056008;28;20167;-68
2023/09/03 06:45:19;;;;;;;1.58;1.48;;;19.50;68.90;;;;;;5055244;28;20183;-68
2023/09/03 06:47:45;;;;;;;1.58;1.48;;;19.50;68.80;;;;;;5056088;28;20171;-68
2023/09/03 06:50:11;;;;;;;1.65;1.50;;;19.50;68.80;;;;;;5055488;28;20199;-68
2023/09/03 06:52:37;;;;;;;1.70;1.60;;;19.50;68.80;;;;;;5055324;28;20191;-67
2023/09/03 06:55:03;;;;;;;1.98;1.83;;;19.50;68.80;;;;;;5055574;28;20237;-69
2023/09/03 06:57:28;;;;;;;1.80;1.70;;;19.50;68.80;;;;;;5055963;28;20174;-68
2023/09/03 06:59:54;;;;;;;1.60;1.50;;;19.50;68.80;;;;;;5055066;28;20689;-68
2023/09/03 07:02:20;;;;;;;1.80;1.45;;;19.60;68.80;;;;;;5055433;28;20185;-70
2023/09/03 07:04:46;;;;;;;1.63;1.52;;;19.60;68.80;;;;;;5055736;28;20217;-69
2023/09/03 07:07:11;;;;;;;1.67;1.58;;;19.60;68.80;;;;;;5054643;28;20178;-70
2023/09/03 07:09:37;;;;;;;1.65;1.30;;;19.50;68.70;;;;;;5055398;28;20228;-68
2023/09/03 07:12:03;;;;;;;1.60;1.50;;;19.60;68.80;;;;;;5055309;28;20194;-68
2023/09/03 07:14:35;;;;;;;1.50;1.40;;;19.60;68.80;;;;;;5054506;28;20176;-68
2023/09/03 07:17:01;;;;;;;1.50;1.40;;;19.50;68.60;;;;;;5055252;28;20186;-68
2023/09/03 07:19:27;;;;;;;1.65;1.55;;;19.60;68.60;;;;;;5055492;28;20542;-67
2023/09/03 07:21:52;;;;;;;1.60;1.50;;;19.60;68.50;;;;;;5054618;28;20264;-68
2023/09/03 07:24:18;;;;;;;1.50;1.40;;;19.70;68.50;;;;;;5054836;28;20252;-68
2023/09/03 07:26:44;;;;;;;2.10;1.83;;;19.60;68.40;;;;;;5055132;28;20282;-67
2023/09/03 07:29:09;;;;;;;1.40;1.30;;;19.60;68.50;;;;;;5054404;28;20170;-68
2023/09/03 07:31:40;;;;;;;1.50;1.40;;;19.70;68.50;;;;;;5055022;28;20257;-68
2023/09/03 07:34:15;;;;;;;2.10;1.67;;;19.60;68.40;;;;;;5054174;28;20213;-69
2023/09/03 07:36:41;;;;;;;2.70;1.60;;;19.70;68.50;;;;;;5054982;28;20179;-68
2023/09/03 07:39:09;;;;;;;2.08;1.98;;;19.70;68.40;;;;;;5054567;28;20626;-68
2023/09/03 07:41:35;;;;;;;2.20;1.70;;;19.70;68.50;;;;;;5054461;28;20201;-67
2023/09/03 07:44:00;;;;;;;1.80;1.60;;;19.70;68.50;;;;;;5054737;28;20206;-67
2023/09/03 07:46:26;;;;;;;2.20;1.70;;;19.70;68.40;;;;;;5054695;28;20636;-67
2023/09/03 07:48:52;;;;;;;1.80;1.70;;;19.70;68.40;;;;;;5054227;28;20179;-66
2023/09/03 07:51:19;;;;;;;1.45;1.35;;;19.70;68.50;;;;;;5054033;28;20221;-67
2023/09/03 07:53:45;;;;;;;1.67;1.58;;;19.80;68.50;;;;;;5054695;28;20175;-66
2023/09/03 07:56:10;;;;;;;1.40;1.30;;;19.80;68.50;;;;;;5053866;28;20171;-67
2023/09/03 07:58:36;;;;;;;1.77;1.67;;;19.80;68.30;;;;;;5054466;28;20230;-67
2023/09/03 08:01:01;;;;;;;1.42;1.33;;;19.80;68.30;;;;;;5054537;28;20183;-68
2023/09/03 08:03:36;;;;;;;1.52;1.42;;;19.80;68.30;;;;;;5053813;28;20281;-68
2023/09/03 08:06:02;;;;;;;1.98;1.33;;;19.90;68.30;;;;;;5054270;28;20198;-69
2023/09/03 08:08:28;;;;;;;2.72;1.58;;;19.90;68.30;;;;;;5054634;28;20175;-67
2023/09/03 08:10:54;;;;;;;1.90;1.80;;;20.00;68.40;;;;;;5053844;28;20215;-67
2023/09/03 08:13:19;;;;;;;1.65;1.55;;;19.90;68.30;;;;;;5054385;28;20199;-66
2023/09/03 08:15:45;;;;;;;1.63;1.42;;;19.90;68.20;;;;;;5054312;28;20233;-65
2023/09/03 08:18:10;;;;;;;1.40;1.30;;;20.00;68.30;;;;;;5053365;28;20237;-67
2023/09/03 08:20:36;;;;;;;1.60;1.50;;;20.00;68.30;;;;;;5054253;28;20183;-66
2023/09/03 08:23:01;;;;;;;1.73;1.52;;;20.00;68.20;;;;;;5053628;28;20167;-67
2023/09/03 08:25:28;;;;;;;1.48;1.38;;;20.00;68.20;;;;;;5054059;28;20182;-67
2023/09/03 08:27:53;;;;;;;2.38;1.70;;;20.10;68.10;;;;;;5054062;28;20270;-66
2023/09/03 08:30:19;;;;;;;1.55;1.45;;;20.10;68.10;;;;;;5053082;28;20290;-67
2023/09/03 08:32:44;;;;;;;1.63;1.35;;;20.10;68.00;;;;;;5053932;28;20218;-67
2023/09/03 08:35:10;;;;;;;1.20;1.20;;;20.20;68.00;;;;;;5053684;28;20178;-69
2023/09/03 08:37:35;;;;;;;1.23;1.15;;;20.20;68.00;;;;;;5053432;28;20175;-68
2023/09/03 08:40:01;;;;;;;1.42;1.33;;;20.20;67.90;;;;;;5053699;28;20167;-68
2023/09/03 08:42:27;;;;;;;1.40;1.30;;;20.30;68.70;;;;;;5053847;28;20179;-68
2023/09/03 08:44:55;;;;;;;1.70;1.60;;;20.30;67.80;;;;;;5052032;28;20183;-67
2023/09/03 08:47:21;;;;;;;1.50;1.40;;;20.30;67.70;;;;;;5052339;28;20297;-67
2023/09/03 08:49:46;;;;;;;1.50;1.40;;;20.30;67.70;;;;;;5052378;28;20254;-66
2023/09/03 08:52:12;;;;;;;1.45;1.35;;;20.30;67.60;;;;;;5051598;28;20642;-67
2023/09/03 08:54:38;;;;;;;1.08;1.08;;;20.40;67.70;;;;;;5052491;28;20630;-67
2023/09/03 08:57:05;;;;;;;1.23;1.20;;;20.40;67.70;;;;;;5053412;28;20175;-67
2023/09/03 08:59:31;;;;;;;1.40;1.30;;;20.40;67.60;;;;;;5052547;28;20229;-68
2023/09/03 09:01:57;;;;;;;1.42;1.33;;;20.40;67.50;;;;;;5051674;28;20537;-68
2023/09/03 09:04:23;;;;;;;1.20;1.20;;;20.50;67.50;;;;;;5052336;28;20175;-72
2023/09/03 09:06:48;;;;;;;1.10;1.10;;;20.40;67.50;;;;;;5051765;28;20199;-68
2023/09/03 09:09:14;;;;;;;1.50;1.40;;;20.40;67.50;;;;;;5051807;28;20634;-68
2023/09/03 09:11:42;;;;;;;1.25;1.20;;;20.50;67.50;;;;;;5053181;28;20223;-66
2023/09/03 09:14:31;;;;;;;1.73;1.23;;;20.50;67.50;;;;;;5051110;28;20230;-67
2023/09/03 09:16:56;;;;;;;1.38;1.27;;;20.50;67.40;;;;;;5051728;28;20541;-68
2023/09/03 09:19:22;;;;;;;1.13;1.13;;;20.50;67.40;;;;;;5052178;28;20167;-66
2023/09/03 09:21:48;;;;;;;1.42;1.33;;;20.50;67.50;;;;;;5053164;28;20537;-67
2023/09/03 09:24:13;;;;;;;1.48;1.38;;;20.50;67.50;;;;;;5052633;28;20286;-68
2023/09/03 09:26:39;;;;;;;1.83;1.55;;;20.50;67.50;;;;;;5052208;28;20186;-67
2023/09/03 09:29:05;;;;;;;1.33;1.23;;;20.50;67.50;;;;;;5052840;28;20179;-68
2023/09/03 09:31:32;;;;;;;1.20;1.10;;;20.50;67.50;;;;;;5052641;28;20217;-68
2023/09/03 09:33:59;;;;;;;1.58;1.48;;;20.50;67.50;;;;;;5052113;28;20205;-68
2023/09/03 09:36:25;;;;;;;1.40;1.30;;;20.50;67.40;;;;;;5052837;28;20179;-70
2023/09/03 09:38:51;;;;;;;1.25;1.15;;;20.50;67.40;;;;;;5052913;28;20258;-69
2023/09/03 09:41:23;;;;;;;1.35;1.10;;;20.50;67.40;;;;;;5051778;28;20218;-69
2023/09/03 09:43:49;;;;;;;1.00;1.00;;;20.60;67.50;;;;;;5052556;28;20596;-67
2023/09/03 09:46:28;;;;;;;1.13;1.05;;;20.60;67.40;;;;;;5052624;28;20187;-67
2023/09/03 09:48:55;;;;;;;1.55;1.45;;;20.60;67.40;;;;;;5051918;28;20669;-67
2023/09/03 09:51:20;;;;;;;1.48;1.23;;;20.60;67.30;;;;;;5052265;28;20243;-67
2023/09/03 09:53:53;;;;;;;1.50;1.40;;;20.70;67.30;;;;;;5052479;28;20213;-67
2023/09/03 09:56:19;;;;;;;1.02;1.02;;;20.70;67.20;;;;;;5051449;28;20270;-68
2023/09/03 09:58:44;;;;;;;0.95;0.95;;;20.70;67.20;;;;;;5051202;28;20305;-67
2023/09/03 10:01:10;;;;;;;1.35;1.30;;;20.70;67.20;;;;;;5050949;28;20182;-69
2023/09/03 10:03:42;;;;;;;1.17;1.05;;;20.70;67.20;;;;;;5051971;28;20163;-68
2023/09/03 10:06:08;;;;;;;1.27;1.17;;;20.70;67.20;;;;;;5052177;28;20179;-69
2023/09/03 10:08:34;;;;;;;1.20;1.20;;;20.70;67.10;;;;;;5051850;28;20530;-68
2023/09/03 10:11:00;;;;;;;1.42;1.33;;;20.80;67.00;;;;;;5052146;28;20256;-68
2023/09/03 10:13:25;;;;;;;1.23;1.23;;;20.80;67.00;;;;;;5054259;28;20622;-67
2023/09/03 10:15:51;;;;;;;1.92;1.50;;;20.80;66.90;;;;;;5055990;28;20816;-67
2023/09/03 10:18:16;;;;;;;0.98;0.98;;;20.80;67.00;;;;;;5055104;28;20608;-68
2023/09/03 10:20:42;;;;;;;1.58;1.48;;;20.80;67.00;;;;;;5055309;28;20182;-67
2023/09/03 10:23:08;;;;;;;1.30;1.25;;;20.70;67.10;;;;;;5054173;28;20254;-68
2023/09/03 10:25:33;;;;;;;1.02;1.02;;;20.70;67.10;;;;;;5055164;28;20190;-67
2023/09/03 10:28:02;;;;;;;1.30;1.30;;;20.80;67.00;;;;;;5054943;28;20285;-68
2023/09/03 10:30:30;;;;;;;1.95;1.27;;;20.80;67.00;;;;;;5054549;28;21106;-67
2023/09/03 10:32:55;;;;;;;1.30;1.20;;;20.80;66.90;;;;;;5055075;28;20773;-69
2023/09/03 10:35:21;;;;;;;1.30;1.20;;;20.80;66.90;;;;;;5054717;28;20290;-69
2023/09/03 10:37:49;;;;;;;1.10;1.00;;;20.80;66.90;;;;;;5055406;28;20228;-69
2023/09/03 10:40:23;;;;;;;1.27;1.10;;;20.80;66.90;;;;;;5055581;28;20230;-69
2023/09/03 10:42:49;;;;;;;1.05;1.05;;;20.80;66.90;;;;;;5056233;28;20186;-68
2023/09/03 10:45:15;;;;;;;1.15;1.15;;;20.80;67.00;;;;;;5055121;28;20183;-69
2023/09/03 10:48:03;;;;;;;1.48;1.38;;;20.80;67.00;;;;;;5056150;28;20183;-68
2023/09/03 10:50:50;;;;;;;1.02;1.02;;;20.80;66.90;;;;;;5055656;28;20310;-68
2023/09/03 10:53:35;;;;;;;1.25;1.17;;;20.80;66.80;;;;;;5055795;28;20182;-68
2023/09/03 10:56:17;;;;;;;1.17;1.10;;;20.90;66.80;;;;;;5055513;28;20544;-68
2023/09/03 10:58:54;;;;;;;1.15;1.10;;;20.90;66.70;;;;;;5054825;28;20226;-69
2023/09/03 11:01:30;;;;;;;1.42;1.20;;;20.90;66.60;;;;;;5055530;28;20179;-70
2023/09/03 11:03:56;;;;;;;1.15;1.05;;;20.90;66.60;;;;;;5055800;28;20179;-70
2023/09/03 11:06:22;;;;;;;1.40;1.30;;;21.00;67.40;;;;;;5054712;28;20691;-69
2023/09/03 11:09:10;;;;;;;1.15;1.08;;;21.00;66.60;;;;;;5055635;28;20228;-68
2023/09/03 11:11:36;;;;;;;0.93;0.93;;;20.90;66.60;;;;;;5055498;28;20211;-68
2023/09/03 11:14:02;;;;;;;1.30;1.20;;;20.90;66.60;;;;;;5054847;28;20313;-68
2023/09/03 11:16:37;;;;;;;1.27;1.20;;;20.90;66.60;;;;;;5055440;28;20187;-67
2023/09/03 11:19:04;;;;;;;1.13;1.10;;;21.00;66.60;;;;;;5054461;28;20175;-68
2023/09/03 11:21:30;;;;;;;1.10;1.00;;;21.00;66.60;;;;;;5055200;28;20668;-67
2023/09/03 11:23:59;;;;;;;1.60;1.20;;;21.00;66.60;;;;;;5055296;28;20175;-68
2023/09/03 11:26:24;;;;;;;1.52;1.42;;;21.00;66.60;;;;;;5053967;28;20179;-68
2023/09/03 11:28:50;;;;;;;1.20;1.20;;;21.00;66.60;;;;;;5055377;28;20171;-68
2023/09/03 11:31:16;;;;;;;1.20;1.20;;;21.00;66.60;;;;;;5054872;28;20211;-68
2023/09/03 11:33:41;;;;;;;1.30;1.20;;;21.00;66.50;;;;;;5054680;28;20236;-69
2023/09/03 11:36:07;;;;;;;1.27;1.17;;;21.00;67.40;;;;;;5054907;28;20194;-70
2023/09/03 11:38:33;;;;;;;1.30;1.20;;;21.00;66.40;;;;;;5054920;28;20176;-68
2023/09/03 11:40:59;;;;;;;1.30;1.20;;;21.00;66.40;;;;;;5053882;28;20515;-68
2023/09/03 11:43:26;;;;;;;1.13;1.13;;;21.00;66.40;;;;;;5054881;28;20258;-68
2023/09/03 11:45:51;;;;;;;1.52;0.98;;;21.00;66.30;;;;;;5053766;28;20175;-67
2023/09/03 11:48:27;;;;;;;1.10;1.10;;;21.10;66.40;;;;;;5053896;28;20879;-68
2023/09/03 11:50:52;;;;;;;1.35;1.27;;;21.10;66.30;;;;;;5054589;28;20784;-68
2023/09/03 11:53:18;;;;;;;1.15;1.15;;;21.10;66.30;;;;;;5054245;28;20262;-68
2023/09/03 11:55:46;;;;;;;1.65;1.20;;;21.10;66.20;;;;;;5054175;28;20203;-67
2023/09/03 11:58:13;;;;;;;1.25;1.15;;;21.10;66.30;;;;;;5054330;28;20230;-68
2023/09/03 12:00:39;;;;;;;1.33;1.23;;;21.10;66.20;;;;;;5054786;28;20189;-67
2023/09/03 12:03:04;;;;;;;1.30;1.20;;;21.20;66.20;;;;;;5052570;28;20183;-70
2023/09/03 12:05:32;;;;;;;1.15;1.15;;;21.20;67.00;;;;;;5053250;28;20225;-69
2023/09/03 12:08:02;;;;;;;1.17;1.13;;;21.20;66.20;;;;;;5054139;28;20171;-70
2023/09/03 12:10:28;;;;;;;1.27;1.00;;;21.20;66.20;;;;;;5053647;28;20218;-68
2023/09/03 12:12:53;;;;;;;1.20;1.10;;;21.20;66.10;;;;;;5053204;28;20167;-67
2023/09/03 12:15:20;;;;;;;1.30;1.20;;;21.20;66.10;;;;;;5053439;28;20191;-67
2023/09/03 12:17:46;;;;;;;1.10;1.00;;;21.10;66.00;;;;;;5054278;28;20559;-67
2023/09/03 12:20:34;;;;;;;1.00;1.00;;;21.20;66.00;;;;;;5053785;28;20654;-68
2023/09/03 12:23:26;;;;;;;1.20;1.10;;;21.20;65.90;;;;;;5053362;28;20642;-68
2023/09/03 12:25:51;;;;;;;1.13;1.02;;;21.20;65.90;;;;;;5053272;28;20206;-67
2023/09/03 12:28:17;;;;;;;1.13;1.13;;;21.20;66.00;;;;;;5053804;28;20729;-67
2023/09/03 12:31:05;;;;;;;0.90;0.90;;;21.20;66.00;;;;;;5053206;28;20272;-67
2023/09/03 12:33:34;;;;;;;1.27;1.17;;;21.10;66.10;;;;;;5054007;28;20589;-67
2023/09/03 12:36:04;;;;;;;1.27;1.27;;;21.10;66.10;;;;;;5053224;28;20248;-68
2023/09/03 12:38:30;;;;;;;1.30;1.20;;;21.10;66.10;;;;;;5052658;28;20179;-69
2023/09/03 12:40:55;;;;;;;1.00;0.80;;;21.10;66.10;;;;;;5053661;28;20175;-68
2023/09/03 12:43:25;;;;;;;1.00;1.00;;;21.10;66.20;;;;;;5051533;28;20182;-69
2023/09/03 12:45:50;;;;;;;1.20;1.20;;;21.10;66.20;;;;;;5053920;28;20558;-68
2023/09/03 12:48:16;;;;;;;1.15;1.05;;;21.10;66.10;;;;;;5053296;28;20175;-68